SÍGUENOS

APP INUMET

Disponible en Google Play

Productos aeronáuticos

  • SIGMET
  • METAR / SPECI
  • TAF
  • AIREP
  • Aviso de aeródromo
  • Pronárea
  • Carta superficie
Fecha : 19/08/2017
FTUY 03 SUMU 19 11 30
SUMU TAF 191130Z 1912/2012 20015G30KT 4000 TSRA BKN010 FEW030CB OVC060 TX14/1918Z TN09/2010Z BECMG 1916/1920 25015G25KT 8000 RA BKN013 OVCN050=
SULS TAF 191130Z 1912/2012 21015G30KT 3000 TSRA BKN008 FEW030CB OVC060 TX14/1918Z TN09/2010Z BECMG 1918/1922 24015G25KT 8000 RA BKN012 OVC050=
SUAA TAF 191130Z 1912/2012 19015G30KT 4000 TSRA BKN010 FEW030CB OVC060 TX14/1918Z TN09/2010Z BECMG 1916/1920 25015G25KT 8000 RA BKN013 OVC050=
SUCA TAF 191130Z 1912/2012 17015G30KT 5000 TSRA BKN010 FEW030CB OVC060 TX15/1918Z TN06/2010Z BECMG 1918/1922 22015KT 9999 BKNN013 SCT060 BKN200=
SUDU TAF 191130Z 1912/2012 24015G25KT 5000 TSRA BKN010 FEW030CB OVC060 TX15/1918Z TN04/2010Z BECMG 1916/1920 16015KT 8000 RA BKN012 OVC060=
SUSO TAF 191130Z 1912/2012 36010KT 8000 RA BKN020 OVC070 TX17/1918Z TN06/2010Z TEMPO 1913/1918 18015G30KT 5000 TSRA BKN015 FEW035CB OVC060 BECMG 1919/1923 17020KT 8000 RA BKN015 BKN060 OVC200=
SURV TAF 191130Z 1912/2012 01008KT 8000 RA OVC010 TX17/1918Z TN06/2010Z TEMPO 1913/1920 19020KT 7000 SHRA BKN015 BKN060 OVC200=

Predictor : Alejandro Curiel


Mensajes TAF vigentes - Internacionales


Argentina
TAF SAEZ 190500Z 1906/2006 20010KT 7000 RA BKN030 BKN050 TX16/1918Z TN11/1910Z TEMPO 1907/1911 18015KT 5000 TSRA BKN020 OVC035 FEW040CB BECMG 1912/1914 8000 -RA SCT020 BKN030 BECMG 1915/1918 25010KT 9999 SCT035 BECMG 1922/2001 22010KT CAVOK
TAF SAAR 190500Z 1906/2006 05005KT 9999 SCT030 BKN090 TX18/1919Z TN14/1910Z BECMG 1907/1909 18015G25KT 4000 TSRA BKN010 BKN040 BECMG 1912/1914 18015KT 9999 BKN020 BECMG 1917/1919 22010KT CAVOK
TAF COR SABE 190500Z 1906/2006 27005KT 9999 BKN030 TX16/1918Z TN12/1910Z BECMG 1907/1910 18015G25KT 4000 TSRA BKN015 OVC030 FEW040CB BECMG 1911/1912 6000 RA SCT010 BKN035 BECMG 1914/1916 25010KT 9999 BKN035 BECMG 1922/2001 23015KT CAVOK
TAF SACO 190500Z 1906/2006 20015KT 9999 SCT030 BKN060 TX19/1918Z TN10/1910Z BECMG 1913/1916 18010KT 9999 SCT030
TAF SAME 190500Z 1906/2006 18010KT CAVOK TX19/1920Z TN07/1910Z PROB30 BECMG 1912/1915 27030KT 5000 DU SCT030 BECMG 1919/1922 23020KT 9999 SCT040
Bolivia
TAF SLLP 190430Z 1906/2006 05005KT 9999 NSC TX16/1920Z TNM02/1910Z BECMG 1913/1915 33007KT TEMPO 1916/1919 30010G20KT FEW017
Brasil
TAF SBBR 190400Z 1906/2006 10007KT CAVOK TN15/1909Z TX30/1918Z FM191300 09010KT CAVOK FM191800 10009KT CAVOK RMK PDF
TAF SBPA 190330Z 1906/2006 10003KT CAVOK TN13/1908Z TX23/1918Z BECMG 1914/1916 02005KT 9999 FEW040 BECMG 1918/1920 SCT035 FEW040TCU PROB30 TEMPO 19 22/2002 28015KT 3000 TSRA BKN006 FEW040CB BECMG 2002/2004 27008KT 8000 BKN01 0 RMK PDW
TAF SBFI 190330Z 1906/2006 03008KT 9999 BKN035 TN17/1908Z TX26/1918Z BECMG 1914/1916 SCT035 PROB30 TEMPO 2000/2006 24012KT 3000 TSRA BR BKN005 FEW035CB RMK PDW
TAF SBFL 190330Z 1906/2006 35005KT 9999 BKN025 TN17/1908Z TX23/1917Z BECMG 1914/1916 01010KT SCT030 RMK PDW
TAF SBRJ 190300Z 1906/1918 01005KT 7000 SCT010 SCT040 TN19/1909Z TX25/1916Z PROB30 1909/1911 4000 BR BKN010 BECMG 1913/1915 14010KT 9999 SCT020 RMK PGX
TAF SBSP 190200Z 1906/2006 08005KT 8000 BKN012 TN15/1909Z TX22/1916Z TEMPO 1906/1907 12005KT 4000 DZ BR OVC005 PROB30 1907/1912 3000 DZ BR OVC003 BECMG 1912/1914 05005KT 9000 BKN012 BECMG 1914/1916 35005KT 9999 BKN017 PROB30 TEMPO 1916/1922 33005KT 6000 SHRA BKN015 BECMG 1922/1924 07005KT BKN010 RMK PHG
TAF SBGR 190200Z 1906/2012 07004KT 6000 BKN005 TN15/1909Z TX21/1916Z PROB30 1907/1910 7000 RA OVC008 BECMG 1910/1912 04005KT 8000 BKN010 BECMG 1914/1916 35005KT 9999 BKN015 PROB30 TEMPO 1916/1919 35005KT 6000 SHRA BKN012 BECMG 1919/1921 06005KT PROB30 TEMPO 1921/1924 12004KT 4000 RA BR BKN009 OVC012 BECMG 2000/2002 07002KT OVC012 BECMG 2003/2005 02004KT BKN017 PROB30 2007/2010 4000 BR OVC008 RMK PHG
Colombia
TAF SKBO 190500Z 1906/2006 02004KT 9999 SCT020 SCT090 TEMPO 1906/1909 7000 VCFG DZ BKN015 TEMPO 1909/1913 5000 DZ BR SCT013 TEMPO 1917/1923 29010KT 9000 VCSH SCT023TCU PROB40 1919/1923 7000 RA SCT017CB TX20/1918Z TN09/1911Z
Chile
TAF SCEL 190430Z 1906/2006 VRB02KT 4000 -RA SCT014 OVC060 TX14/1918Z TN07/1910Z TEMPO 1908/1912 10012KT 2000 BR SCT010 BKN050 BECMG 1910/1911 8000 NSW SCT040 BKN080 BECMG 1913/1915 20004KT FEW050 BECMG 1918/1920 19010KT CAVOK BECMG 2002/2004 15004KT
TAF SCCI 190423Z 1906/2006 35005KT 9999 FEW015 BKN025 TNM02/1909Z TX04/1918Z TEMPO 1906/1912 5000 -SHSN BKN010 OVC020 BECMG 1913/1915 24015KT FEW035 TEMPO 1916/1919 8000 -SHRA BKN030 BECMG 1920/1922 27015G25KT BECMG 1923/2001 31015G25KT BECMG 2002/2004 34020G30KT
Ecuador
SEQM 190440Z 1906/2006 VRB03KT 8000 BCFG FEW005 BKN020 TEMPO 1908/1910 2000 BR SCT005 OVC020 FM191200 VRB03KT 9999 BKN030 BKN080 BECMG 191700 02010KT FM200000 VRB03KT 8000 RA FEW006 BKN020 OVC100 TX21/1919Z TN09/1911Z
EEUU
KIAD 190857Z 1909/2012 VRB04KT P6SM SCT050 FM191100 32008KT P6SM FEW050 SCT200 FM191800 28008KT P6SM FEW050 FEW200 FM200000 VRB04KT P6SM BKN050 FM200500 VRB04KT P6SM SCT050
KDCA 190857Z 1909/2006 32008KT P6SM SCT050 SCT200 FM191800 28008KT P6SM FEW050 SCT200 FM200000 VRB04KT P6SM BKN050 FM200500 VRB04KT P6SM SCT050
KMIA 190856Z 1909/2006 VRB03KT P6SM FEW030 FM191700 09010KT P6SM VCSH SCT030 FM200000 09005KT P6SM VCSH BKN030
KJFK 190842Z 1909/2012 24008KT P6SM BKN008 BKN050 FM191000 25008KT P6SM SCT010 BKN050 BKN250 TEMPO 1910/1911 BKN010 FM191200 31008KT P6SM SCT050 FM191500 26008KT P6SM SCT025 SCT050 FM191800 19013KT P6SM SCT040 FM200300 27008KT P6SM FEW250
KLGA 190842Z 1909/2006 26005KT P6SM SCT015 BKN050 BKN250 TEMPO 1909/1911 BKN015 FM191100 31006KT P6SM SCT050 BKN250 FM191500 28008KT P6SM SCT025 SCT050 FM191800 23008KT P6SM SCT040 FM192000 18011KT P6SM SCT045 FM200300 27008KT P6SM FEW025
España
TAF LEMD 190500Z 1906/2012 02010KT CAVOK TX36/1918Z TN21/1906Z BECMG 1910/1912 VRB05KT BECMG 1921/1923 03010KT PROB40 TEMPO 2000/2006 03012G24KT BECMG 2009/2011 VRB04KT
TAF LEBL 190500Z 1906/2006 VRB03KT 9999 FEW020 TX29/1912Z TN23/2005Z BECMG 1908/1911 20010KT PROB30 TEMPO 1906/1910 RA BKN020 FEW025TCU BECMG 1917/1919 12006KT BKN016 BECMG 1920/1923 33005KT
Francia
TAF LFPO 190500Z 1906/2012 24008KT 9999 SCT025 TEMPO 1911/1917 30015KT -SHRA BKN025TCU PROB30 TEMPO 2004/2008 VRB03KT 4000 BR
Inglaterra
TAF EGLL 190454Z 1906/2012 26010KT 9999 FEW035 PROB40 TEMPO 1911/1917 27015G25KT
Panamá
TAF AMD MPTO 190400Z 1906/2012 29004KT 6000 TS SHRA BKN012 SCT018 OVC090 PROB30 TEMPO 1907/1911 00000KT TSRA SCT016CB BKN090 TEMPO 1911/1916 12008KT 9999 NSW SCT016 TEMPO 1916/1920 17005KT 6000 TSRA SCT015CB BKN090
Paraguay
TAF SGAS 190405Z 1906/2006 06008KT CAVOK TX29/1918Z TN18/1910Z BECMG 1912/1914 07012KT 9999 BKN027 TEMPO 1916/1919 9000 RA BKN020 PROB40 1921/2000 18014KT 6000 TSRA OVC015 FEW040CB
Venezuela
TAF SVMI 190400Z 1906/2006 25010KT 9999 BKN016 TX32/17Z TN25/09Z TEMPO 1906/1909 02003KT 9000 DZ BKN013

* Datos extraidos del Text DataServer de la NOAA (NOAA TEXT DATA SERVER)

Instituto Uruguayo de Meteorología

Dr. Javier Barrios Amorín 1488 - CP 11200
Mesa Central (598) 1895

Montevideo - Uruguay